Etusivu
METAR-TAF:

METAR-TAF

Lentoasemat :

Bejaïa, Algeria

Leveyspiiri: 36-43N, Pituuspiiri: 005-04E, korkeus merenpinnasta: 2 m

Tämänhetkinen sää

Tämä raportti tehtiin 1 tunti ja 5 minuuttia sitten, kello 07.00 UTC
tyyntä
Lämpötila 26°C
Kosteus 79%
Ilmanpaine 1012 hPa
Näkyvyys: 6000 m
Hajanaisia pilviä 1000 ft:n korkeudessa
Hajanaisia pilviä 9000 ft:n korkeudessa

METAR: DAAE 140700Z 00000KT 6000 SCT010 SCT090 26/22 Q1012

Aika: 09:05 (08:05 UTC)

Sääennuste

Tämä raportti tehtiin 3 tuntia ja 5 minuuttia sitten, kello 05.00 UTC
Ennuste voimassa 14. päivästä klo 06 UTC - 15. päivään klo 06 UTC
Tuuli 6 kn pohjoisesta/koillisesta
Näkyvyys: 6000 m
Hajanaisia pilviä 1000 ft:n korkeudessa
Todennäköisyys 30%
14. päivästä klo 06 UTC - 14. päivään klo 08 UTC
Näkyvyys: 4000 m
Hajanaisia pilviä 1000 ft:n korkeudessa
utua,

TAF: DAAE 140500Z 1406/1506 03006KT 6000 SCT010 PROB30 1406/1408 4000 BR SCT010

Säähavainnot ja -ennusteet yli 4000 lentoasemalta (METAR- ja TAF-raportit).

Käytössä olevat sääasemat on merkitty karttaan keltaisilla ja punaisilla pisteillä.

Aseta hiiri pisteen päälle nähdäksesi sääaseman nimen.

Klikkaa sitten nähdäksesi säähavainnot ja -ennusteet.

Kartan vaihtaminen: klikkaa mustalla rastilla varustettuja vihreitä pisteitä, niin voit zoomata sisään; viivalla varustettua vihreää pistettä, niin voit zoomata ulos tai vihreitä nuolia, niin pääset viereisille kartoille.


METAR-TAF: